sensor_id;sensor_type;location;lat;lon;timestamp;temperature;humidity
21662;DHT22;10992;48.170;8.596;2023-03-26T00:01:23;5.10;99.90
21662;DHT22;10992;48.170;8.596;2023-03-26T00:03:53;5.10;99.90
21662;DHT22;10992;48.170;8.596;2023-03-26T00:06:26;5.10;99.90
21662;DHT22;10992;48.170;8.596;2023-03-26T00:08:55;5.10;99.90
21662;DHT22;10992;48.170;8.596;2023-03-26T00:11:24;5.10;99.90
21662;DHT22;10992;48.170;8.596;2023-03-26T00:13:52;5.10;99.90
21662;DHT22;10992;48.170;8.596;2023-03-26T00:16:24;5.10;99.90
21662;DHT22;10992;48.170;8.596;2023-03-26T00:18:52;5.00;99.90
21662;DHT22;10992;48.170;8.596;2023-03-26T00:21:22;4.90;99.90
21662;DHT22;10992;48.170;8.596;2023-03-26T00:23:59;4.90;99.90
21662;DHT22;10992;48.170;8.596;2023-03-26T00:26:27;4.70;99.90
21662;DHT22;10992;48.170;8.596;2023-03-26T00:28:57;4.60;99.90
21662;DHT22;10992;48.170;8.596;2023-03-26T00:31:26;4.50;99.90
21662;DHT22;10992;48.170;8.596;2023-03-26T00:33:53;4.40;99.90
21662;DHT22;10992;48.170;8.596;2023-03-26T00:36:22;4.30;99.90
21662;DHT22;10992;48.170;8.596;2023-03-26T00:38:52;4.40;99.90
21662;DHT22;10992;48.170;8.596;2023-03-26T00:41:21;4.20;99.90
21662;DHT22;10992;48.170;8.596;2023-03-26T00:43:58;4.10;99.90
21662;DHT22;10992;48.170;8.596;2023-03-26T00:46:27;4.00;99.90
21662;DHT22;10992;48.170;8.596;2023-03-26T00:48:55;4.00;99.90
21662;DHT22;10992;48.170;8.596;2023-03-26T00:51:26;4.00;99.90
21662;DHT22;10992;48.170;8.596;2023-03-26T00:53:55;4.10;99.90
21662;DHT22;10992;48.170;8.596;2023-03-26T00:56:22;4.20;99.90
21662;DHT22;10992;48.170;8.596;2023-03-26T00:58:50;4.20;99.90
21662;DHT22;10992;48.170;8.596;2023-03-26T01:01:22;4.20;99.90
21662;DHT22;10992;48.170;8.596;2023-03-26T01:03:55;4.20;99.90
21662;DHT22;10992;48.170;8.596;2023-03-26T01:06:37;4.20;99.90
21662;DHT22;10992;48.170;8.596;2023-03-26T01:09:18;4.20;99.90
21662;DHT22;10992;48.170;8.596;2023-03-26T01:11:48;4.30;99.90
21662;DHT22;10992;48.170;8.596;2023-03-26T01:14:21;4.40;99.90
21662;DHT22;10992;48.170;8.596;2023-03-26T01:16:53;4.40;99.90
21662;DHT22;10992;48.170;8.596;2023-03-26T01:22:20;4.30;99.90
21662;DHT22;10992;48.170;8.596;2023-03-26T01:24:48;4.10;99.90
21662;DHT22;10992;48.170;8.596;2023-03-26T01:27:49;4.10;99.90
21662;DHT22;10992;48.170;8.596;2023-03-26T01:33:25;4.10;99.90
21662;DHT22;10992;48.170;8.596;2023-03-26T01:36:49;4.10;99.90
21662;DHT22;10992;48.170;8.596;2023-03-26T01:39:20;4.00;99.90
21662;DHT22;10992;48.170;8.596;2023-03-26T01:42:00;3.90;99.90
21662;DHT22;10992;48.170;8.596;2023-03-26T01:44:37;3.90;99.90
21662;DHT22;10992;48.170;8.596;2023-03-26T01:47:07;4.00;99.90
21662;DHT22;10992;48.170;8.596;2023-03-26T01:49:35;4.10;99.90
21662;DHT22;10992;48.170;8.596;2023-03-26T01:52:04;4.10;99.90
21662;DHT22;10992;48.170;8.596;2023-03-26T01:54:32;4.10;99.90
21662;DHT22;10992;48.170;8.596;2023-03-26T01:57:09;4.10;99.90
21662;DHT22;10992;48.170;8.596;2023-03-26T02:07:46;3.80;99.90
21662;DHT22;10992;48.170;8.596;2023-03-26T02:10:25;3.90;99.90
21662;DHT22;10992;48.170;8.596;2023-03-26T02:12:54;3.90;99.90
21662;DHT22;10992;48.170;8.596;2023-03-26T02:15:21;3.90;99.90
21662;DHT22;10992;48.170;8.596;2023-03-26T02:17:48;4.00;99.90
21662;DHT22;10992;48.170;8.596;2023-03-26T02:20:16;4.10;99.90
21662;DHT22;10992;48.170;8.596;2023-03-26T02:22:45;4.00;99.90
21662;DHT22;10992;48.170;8.596;2023-03-26T02:25:18;4.00;99.90
21662;DHT22;10992;48.170;8.596;2023-03-26T02:27:49;4.00;99.90
21662;DHT22;10992;48.170;8.596;2023-03-26T02:30:20;3.90;99.90
21662;DHT22;10992;48.170;8.596;2023-03-26T02:32:49;3.90;99.90
21662;DHT22;10992;48.170;8.596;2023-03-26T02:35:20;4.00;99.90
21662;DHT22;10992;48.170;8.596;2023-03-26T02:37:52;4.10;99.90
21662;DHT22;10992;48.170;8.596;2023-03-26T02:40:20;4.10;99.90
21662;DHT22;10992;48.170;8.596;2023-03-26T02:42:49;4.00;99.90
21662;DHT22;10992;48.170;8.596;2023-03-26T02:45:16;3.90;99.90
21662;DHT22;10992;48.170;8.596;2023-03-26T02:48:02;3.80;99.90
21662;DHT22;10992;48.170;8.596;2023-03-26T02:50:50;3.80;99.90
21662;DHT22;10992;48.170;8.596;2023-03-26T02:53:55;3.80;99.90
21662;DHT22;10992;48.170;8.596;2023-03-26T02:56:42;3.90;99.90
21662;DHT22;10992;48.170;8.596;2023-03-26T02:59:38;3.90;99.90
21662;DHT22;10992;48.170;8.596;2023-03-26T03:02:28;3.90;99.90
21662;DHT22;10992;48.170;8.596;2023-03-26T03:05:02;3.90;99.90
21662;DHT22;10992;48.170;8.596;2023-03-26T03:07:32;3.90;99.90
21662;DHT22;10992;48.170;8.596;2023-03-26T03:10:05;3.90;99.90
21662;DHT22;10992;48.170;8.596;2023-03-26T03:13:04;4.00;99.90
21662;DHT22;10992;48.170;8.596;2023-03-26T03:15:33;4.00;99.90
21662;DHT22;10992;48.170;8.596;2023-03-26T03:18:01;4.10;99.90
21662;DHT22;10992;48.170;8.596;2023-03-26T03:20:31;4.20;99.90
21662;DHT22;10992;48.170;8.596;2023-03-26T03:23:01;4.20;99.90
21662;DHT22;10992;48.170;8.596;2023-03-26T03:25:29;4.30;99.90
21662;DHT22;10992;48.170;8.596;2023-03-26T03:27:56;4.40;99.90
21662;DHT22;10992;48.170;8.596;2023-03-26T03:30:23;4.40;99.90
21662;DHT22;10992;48.170;8.596;2023-03-26T03:33:08;4.40;99.90
21662;DHT22;10992;48.170;8.596;2023-03-26T03:35:36;4.50;99.90
21662;DHT22;10992;48.170;8.596;2023-03-26T03:38:04;4.50;99.90
21662;DHT22;10992;48.170;8.596;2023-03-26T03:40:40;4.60;99.90
21662;DHT22;10992;48.170;8.596;2023-03-26T03:43:07;4.60;99.90
21662;DHT22;10992;48.170;8.596;2023-03-26T03:45:42;4.60;99.90
21662;DHT22;10992;48.170;8.596;2023-03-26T03:48:23;4.60;99.90
21662;DHT22;10992;48.170;8.596;2023-03-26T03:50:51;4.70;99.90
21662;DHT22;10992;48.170;8.596;2023-03-26T03:53:25;4.70;99.90
21662;DHT22;10992;48.170;8.596;2023-03-26T03:55:55;4.70;99.90
21662;DHT22;10992;48.170;8.596;2023-03-26T03:58:34;4.70;99.90
21662;DHT22;10992;48.170;8.596;2023-03-26T04:01:09;4.80;99.90
21662;DHT22;10992;48.170;8.596;2023-03-26T04:03:52;4.80;99.90
21662;DHT22;10992;48.170;8.596;2023-03-26T04:06:23;4.90;99.90
21662;DHT22;10992;48.170;8.596;2023-03-26T04:08:52;4.80;99.90
21662;DHT22;10992;48.170;8.596;2023-03-26T04:11:21;4.80;99.90
21662;DHT22;10992;48.170;8.596;2023-03-26T04:14:07;4.80;99.90
21662;DHT22;10992;48.170;8.596;2023-03-26T04:16:57;4.80;99.90
21662;DHT22;10992;48.170;8.596;2023-03-26T04:19:24;4.80;99.90
21662;DHT22;10992;48.170;8.596;2023-03-26T04:21:53;4.80;99.90
21662;DHT22;10992;48.170;8.596;2023-03-26T04:24:21;4.80;99.90
21662;DHT22;10992;48.170;8.596;2023-03-26T04:27:16;4.80;99.90
21662;DHT22;10992;48.170;8.596;2023-03-26T04:29:47;4.90;99.90
21662;DHT22;10992;48.170;8.596;2023-03-26T04:32:24;4.90;99.90
21662;DHT22;10992;48.170;8.596;2023-03-26T04:34:56;4.80;99.90
21662;DHT22;10992;48.170;8.596;2023-03-26T04:37:32;4.90;99.90
21662;DHT22;10992;48.170;8.596;2023-03-26T04:40:12;4.90;99.90
21662;DHT22;10992;48.170;8.596;2023-03-26T04:42:52;4.90;99.90
21662;DHT22;10992;48.170;8.596;2023-03-26T04:45:33;4.90;99.90
21662;DHT22;10992;48.170;8.596;2023-03-26T04:48:00;5.00;99.90
21662;DHT22;10992;48.170;8.596;2023-03-26T04:50:28;5.00;99.90
21662;DHT22;10992;48.170;8.596;2023-03-26T04:52:55;5.10;99.90
21662;DHT22;10992;48.170;8.596;2023-03-26T04:56:08;5.10;99.90
21662;DHT22;10992;48.170;8.596;2023-03-26T04:59:14;5.10;99.90
21662;DHT22;10992;48.170;8.596;2023-03-26T05:01:42;5.10;99.90
21662;DHT22;10992;48.170;8.596;2023-03-26T05:04:14;5.00;99.90
21662;DHT22;10992;48.170;8.596;2023-03-26T05:06:41;5.00;99.90
21662;DHT22;10992;48.170;8.596;2023-03-26T05:09:19;5.00;99.90
21662;DHT22;10992;48.170;8.596;2023-03-26T05:12:12;5.00;99.90
21662;DHT22;10992;48.170;8.596;2023-03-26T05:15:04;5.00;99.90
21662;DHT22;10992;48.170;8.596;2023-03-26T05:17:43;5.00;99.90
21662;DHT22;10992;48.170;8.596;2023-03-26T05:20:23;5.00;99.90
21662;DHT22;10992;48.170;8.596;2023-03-26T05:22:51;5.00;99.90
21662;DHT22;10992;48.170;8.596;2023-03-26T05:25:23;5.00;99.90
21662;DHT22;10992;48.170;8.596;2023-03-26T05:27:51;5.00;99.90
21662;DHT22;10992;48.170;8.596;2023-03-26T05:30:20;5.00;99.90
21662;DHT22;10992;48.170;8.596;2023-03-26T05:32:53;5.00;99.90
21662;DHT22;10992;48.170;8.596;2023-03-26T05:35:25;5.00;99.90
21662;DHT22;10992;48.170;8.596;2023-03-26T05:37:53;5.00;99.90
21662;DHT22;10992;48.170;8.596;2023-03-26T05:40:22;5.00;99.90
21662;DHT22;10992;48.170;8.596;2023-03-26T05:42:55;5.00;99.90
21662;DHT22;10992;48.170;8.596;2023-03-26T05:45:43;5.00;99.90
21662;DHT22;10992;48.170;8.596;2023-03-26T05:48:21;5.10;99.90
21662;DHT22;10992;48.170;8.596;2023-03-26T05:50:49;5.10;99.90
21662;DHT22;10992;48.170;8.596;2023-03-26T05:53:18;5.10;99.90
21662;DHT22;10992;48.170;8.596;2023-03-26T05:55:47;5.10;99.90
21662;DHT22;10992;48.170;8.596;2023-03-26T05:58:35;5.10;99.90
21662;DHT22;10992;48.170;8.596;2023-03-26T06:01:21;5.10;99.90
21662;DHT22;10992;48.170;8.596;2023-03-26T06:04:06;5.10;99.90
21662;DHT22;10992;48.170;8.596;2023-03-26T06:06:38;5.10;99.90
21662;DHT22;10992;48.170;8.596;2023-03-26T06:09:05;5.10;99.90
21662;DHT22;10992;48.170;8.596;2023-03-26T06:11:34;5.10;99.90
21662;DHT22;10992;48.170;8.596;2023-03-26T06:14:02;5.10;99.90
21662;DHT22;10992;48.170;8.596;2023-03-26T06:16:31;5.10;99.90
21662;DHT22;10992;48.170;8.596;2023-03-26T06:19:24;5.10;99.90
21662;DHT22;10992;48.170;8.596;2023-03-26T06:21:57;5.10;99.90
21662;DHT22;10992;48.170;8.596;2023-03-26T06:24:29;5.10;99.90
21662;DHT22;10992;48.170;8.596;2023-03-26T06:27:21;5.10;99.90
21662;DHT22;10992;48.170;8.596;2023-03-26T06:30:11;5.10;99.90
21662;DHT22;10992;48.170;8.596;2023-03-26T06:32:45;5.10;99.90
21662;DHT22;10992;48.170;8.596;2023-03-26T06:35:18;5.10;99.90
21662;DHT22;10992;48.170;8.596;2023-03-26T06:37:45;5.10;99.90
21662;DHT22;10992;48.170;8.596;2023-03-26T06:40:13;5.10;99.90
21662;DHT22;10992;48.170;8.596;2023-03-26T06:43:13;5.20;99.90
21662;DHT22;10992;48.170;8.596;2023-03-26T06:46:00;5.20;99.90
21662;DHT22;10992;48.170;8.596;2023-03-26T06:48:36;5.20;99.90
21662;DHT22;10992;48.170;8.596;2023-03-26T06:51:15;5.20;99.90
21662;DHT22;10992;48.170;8.596;2023-03-26T06:54:09;5.20;99.90
21662;DHT22;10992;48.170;8.596;2023-03-26T06:56:53;5.20;99.90
21662;DHT22;10992;48.170;8.596;2023-03-26T06:59:20;5.30;99.90
21662;DHT22;10992;48.170;8.596;2023-03-26T07:02:06;5.30;99.90
21662;DHT22;10992;48.170;8.596;2023-03-26T07:04:54;5.40;99.90
21662;DHT22;10992;48.170;8.596;2023-03-26T07:07:40;5.40;99.90
21662;DHT22;10992;48.170;8.596;2023-03-26T07:10:18;5.40;99.90
21662;DHT22;10992;48.170;8.596;2023-03-26T07:13:04;5.50;99.90
21662;DHT22;10992;48.170;8.596;2023-03-26T07:15:57;5.60;99.90
21662;DHT22;10992;48.170;8.596;2023-03-26T07:18:56;5.60;99.90
21662;DHT22;10992;48.170;8.596;2023-03-26T07:21:29;5.70;99.90
21662;DHT22;10992;48.170;8.596;2023-03-26T07:23:56;5.70;99.90
21662;DHT22;10992;48.170;8.596;2023-03-26T07:29:36;5.60;99.90
21662;DHT22;10992;48.170;8.596;2023-03-26T07:35:42;5.60;99.90
21662;DHT22;10992;48.170;8.596;2023-03-26T07:39:02;5.70;99.90
21662;DHT22;10992;48.170;8.596;2023-03-26T07:48:04;5.70;99.90
21662;DHT22;10992;48.170;8.596;2023-03-26T07:50:55;5.80;99.90
21662;DHT22;10992;48.170;8.596;2023-03-26T07:53:43;5.90;99.90
21662;DHT22;10992;48.170;8.596;2023-03-26T07:56:37;6.00;99.90
21662;DHT22;10992;48.170;8.596;2023-03-26T07:59:44;5.90;99.90
21662;DHT22;10992;48.170;8.596;2023-03-26T08:02:59;5.80;99.90
21662;DHT22;10992;48.170;8.596;2023-03-26T08:06:11;5.70;99.90
21662;DHT22;10992;48.170;8.596;2023-03-26T08:09:04;5.70;99.90
21662;DHT22;10992;48.170;8.596;2023-03-26T08:14:44;5.70;99.90
21662;DHT22;10992;48.170;8.596;2023-03-26T08:20:05;5.70;99.90
21662;DHT22;10992;48.170;8.596;2023-03-26T08:22:37;5.70;99.90
21662;DHT22;10992;48.170;8.596;2023-03-26T08:25:17;5.70;99.90
21662;DHT22;10992;48.170;8.596;2023-03-26T08:30:23;5.70;99.90
21662;DHT22;10992;48.170;8.596;2023-03-26T08:35:24;5.70;99.90
21662;DHT22;10992;48.170;8.596;2023-03-26T08:37:51;5.70;99.90
21662;DHT22;10992;48.170;8.596;2023-03-26T08:40:55;5.60;99.90
21662;DHT22;10992;48.170;8.596;2023-03-26T08:59:45;6.00;99.90
21662;DHT22;10992;48.170;8.596;2023-03-26T09:11:20;9.20;99.90
21662;DHT22;10992;48.170;8.596;2023-03-26T09:25:51;11.80;99.90
21662;DHT22;10992;48.170;8.596;2023-03-26T09:39:33;12.80;99.90
21662;DHT22;10992;48.170;8.596;2023-03-26T09:42:23;12.70;99.90
21662;DHT22;10992;48.170;8.596;2023-03-26T09:57:02;12.00;99.90
21662;DHT22;10992;48.170;8.596;2023-03-26T09:59:43;12.00;99.90
21662;DHT22;10992;48.170;8.596;2023-03-26T10:08:03;12.90;99.90
21662;DHT22;10992;48.170;8.596;2023-03-26T10:11:00;12.70;99.90
21662;DHT22;10992;48.170;8.596;2023-03-26T10:13:59;12.70;99.90
21662;DHT22;10992;48.170;8.596;2023-03-26T10:19:59;12.70;99.90
21662;DHT22;10992;48.170;8.596;2023-03-26T10:22:35;13.60;99.90
21662;DHT22;10992;48.170;8.596;2023-03-26T10:31:43;12.90;99.90
21662;DHT22;10992;48.170;8.596;2023-03-26T10:34:43;13.10;99.90
21662;DHT22;10992;48.170;8.596;2023-03-26T10:48:50;12.40;99.90
21662;DHT22;10992;48.170;8.596;2023-03-26T10:51:45;12.00;99.90
21662;DHT22;10992;48.170;8.596;2023-03-26T10:56:53;12.10;99.90
21662;DHT22;10992;48.170;8.596;2023-03-26T10:59:21;11.80;99.90
21662;DHT22;10992;48.170;8.596;2023-03-26T11:02:38;11.80;99.90
21662;DHT22;10992;48.170;8.596;2023-03-26T11:05:16;12.50;99.90
21662;DHT22;10992;48.170;8.596;2023-03-26T11:08:00;13.40;99.90
21662;DHT22;10992;48.170;8.596;2023-03-26T11:13:36;13.10;99.90
21662;DHT22;10992;48.170;8.596;2023-03-26T11:19:23;11.50;99.90
21662;DHT22;10992;48.170;8.596;2023-03-26T11:27:52;11.30;99.90
21662;DHT22;10992;48.170;8.596;2023-03-26T11:33:28;12.90;99.90
21662;DHT22;10992;48.170;8.596;2023-03-26T11:36:22;13.30;99.90
21662;DHT22;10992;48.170;8.596;2023-03-26T11:38:50;13.50;99.90
21662;DHT22;10992;48.170;8.596;2023-03-26T11:41:26;13.10;99.90
21662;DHT22;10992;48.170;8.596;2023-03-26T11:46:45;12.00;99.90
21662;DHT22;10992;48.170;8.596;2023-03-26T11:49:16;11.80;99.90
21662;DHT22;10992;48.170;8.596;2023-03-26T11:51:46;12.30;99.90
21662;DHT22;10992;48.170;8.596;2023-03-26T11:54:13;13.10;99.90
21662;DHT22;10992;48.170;8.596;2023-03-26T11:56:52;13.80;99.90
21662;DHT22;10992;48.170;8.596;2023-03-26T11:59:51;14.20;99.90
21662;DHT22;10992;48.170;8.596;2023-03-26T12:02:29;14.80;99.90
21662;DHT22;10992;48.170;8.596;2023-03-26T12:05:26;13.60;99.90
21662;DHT22;10992;48.170;8.596;2023-03-26T12:07:59;12.50;99.90
21662;DHT22;10992;48.170;8.596;2023-03-26T12:16:16;12.60;99.90
21662;DHT22;10992;48.170;8.596;2023-03-26T12:18:46;12.70;99.90
21662;DHT22;10992;48.170;8.596;2023-03-26T12:21:22;12.30;99.90
21662;DHT22;10992;48.170;8.596;2023-03-26T12:24:03;11.90;99.90
21662;DHT22;10992;48.170;8.596;2023-03-26T12:31:50;13.40;99.90
21662;DHT22;10992;48.170;8.596;2023-03-26T12:34:20;12.80;99.90
21662;DHT22;10992;48.170;8.596;2023-03-26T12:36:54;12.30;99.90
21662;DHT22;10992;48.170;8.596;2023-03-26T12:39:30;11.80;99.90
21662;DHT22;10992;48.170;8.596;2023-03-26T12:42:28;11.70;99.90
21662;DHT22;10992;48.170;8.596;2023-03-26T12:45:19;11.90;99.90
21662;DHT22;10992;48.170;8.596;2023-03-26T12:47:48;11.70;99.90
21662;DHT22;10992;48.170;8.596;2023-03-26T12:58:34;10.30;99.90
21662;DHT22;10992;48.170;8.596;2023-03-26T13:06:34;10.40;99.90
21662;DHT22;10992;48.170;8.596;2023-03-26T13:12:07;10.80;99.90
21662;DHT22;10992;48.170;8.596;2023-03-26T13:26:16;10.40;99.90
21662;DHT22;10992;48.170;8.596;2023-03-26T13:29:07;10.50;99.90
21662;DHT22;10992;48.170;8.596;2023-03-26T13:31:55;10.50;99.90
21662;DHT22;10992;48.170;8.596;2023-03-26T13:37:29;11.00;99.90
21662;DHT22;10992;48.170;8.596;2023-03-26T13:40:23;11.20;99.90
21662;DHT22;10992;48.170;8.596;2023-03-26T13:43:25;11.50;99.90
21662;DHT22;10992;48.170;8.596;2023-03-26T13:46:00;11.40;99.90
21662;DHT22;10992;48.170;8.596;2023-03-26T13:54:17;11.70;99.90
21662;DHT22;10992;48.170;8.596;2023-03-26T13:56:55;11.30;99.90
21662;DHT22;10992;48.170;8.596;2023-03-26T13:59:47;10.60;99.90
21662;DHT22;10992;48.170;8.596;2023-03-26T14:02:22;10.20;99.90
21662;DHT22;10992;48.170;8.596;2023-03-26T14:04:55;10.30;99.90
21662;DHT22;10992;48.170;8.596;2023-03-26T14:07:29;10.60;99.90
21662;DHT22;10992;48.170;8.596;2023-03-26T14:10:32;11.00;99.90
21662;DHT22;10992;48.170;8.596;2023-03-26T14:13:18;11.90;99.90
21662;DHT22;10992;48.170;8.596;2023-03-26T14:16:11;12.30;99.90
21662;DHT22;10992;48.170;8.596;2023-03-26T14:29:45;10.40;99.90
21662;DHT22;10992;48.170;8.596;2023-03-26T14:32:51;10.30;99.90
21662;DHT22;10992;48.170;8.596;2023-03-26T14:46:42;9.40;99.90
21662;DHT22;10992;48.170;8.596;2023-03-26T14:49:33;9.10;99.90
21662;DHT22;10992;48.170;8.596;2023-03-26T14:52:27;7.60;99.90
21662;DHT22;10992;48.170;8.596;2023-03-26T14:55:03;7.60;99.90
21662;DHT22;10992;48.170;8.596;2023-03-26T15:12:08;6.80;99.90
21662;DHT22;10992;48.170;8.596;2023-03-26T15:17:51;7.30;99.90
21662;DHT22;10992;48.170;8.596;2023-03-26T15:29:00;7.50;99.90
21662;DHT22;10992;48.170;8.596;2023-03-26T15:31:47;7.40;99.90
21662;DHT22;10992;48.170;8.596;2023-03-26T15:43:18;7.80;99.90
21662;DHT22;10992;48.170;8.596;2023-03-26T15:51:32;8.00;99.90
21662;DHT22;10992;48.170;8.596;2023-03-26T15:59:41;7.70;99.90
21662;DHT22;10992;48.170;8.596;2023-03-26T16:02:28;7.50;99.90
21662;DHT22;10992;48.170;8.596;2023-03-26T16:05:33;7.60;99.90
21662;DHT22;10992;48.170;8.596;2023-03-26T16:10:50;7.70;99.90
21662;DHT22;10992;48.170;8.596;2023-03-26T16:13:32;7.40;99.90
21662;DHT22;10992;48.170;8.596;2023-03-26T16:18:54;7.00;99.90
21662;DHT22;10992;48.170;8.596;2023-03-26T16:26:53;6.90;99.90
21662;DHT22;10992;48.170;8.596;2023-03-26T16:29:26;6.80;99.90
21662;DHT22;10992;48.170;8.596;2023-03-26T16:35:00;6.80;99.90
21662;DHT22;10992;48.170;8.596;2023-03-26T16:48:34;6.70;99.90
21662;DHT22;10992;48.170;8.596;2023-03-26T16:54:08;6.40;99.90
21662;DHT22;10992;48.170;8.596;2023-03-26T17:11:15;6.10;99.90
21662;DHT22;10992;48.170;8.596;2023-03-26T17:16:48;6.00;99.90
21662;DHT22;10992;48.170;8.596;2023-03-26T17:19:41;6.00;99.90
21662;DHT22;10992;48.170;8.596;2023-03-26T17:22:32;5.90;99.90
21662;DHT22;10992;48.170;8.596;2023-03-26T17:25:43;5.90;99.90
21662;DHT22;10992;48.170;8.596;2023-03-26T17:34:37;5.80;99.90
21662;DHT22;10992;48.170;8.596;2023-03-26T17:42:59;5.60;99.90
21662;DHT22;10992;48.170;8.596;2023-03-26T17:45:32;5.60;99.90
21662;DHT22;10992;48.170;8.596;2023-03-26T17:48:20;5.60;99.90
21662;DHT22;10992;48.170;8.596;2023-03-26T17:51:16;5.60;99.90
21662;DHT22;10992;48.170;8.596;2023-03-26T17:53:45;5.60;99.90
21662;DHT22;10992;48.170;8.596;2023-03-26T17:56:20;5.50;99.90
21662;DHT22;10992;48.170;8.596;2023-03-26T17:58:54;5.50;99.90
21662;DHT22;10992;48.170;8.596;2023-03-26T18:01:41;5.50;99.90
21662;DHT22;10992;48.170;8.596;2023-03-26T18:04:18;5.50;99.90
21662;DHT22;10992;48.170;8.596;2023-03-26T18:18:10;5.10;99.90
21662;DHT22;10992;48.170;8.596;2023-03-26T18:20:39;5.00;99.90
21662;DHT22;10992;48.170;8.596;2023-03-26T18:23:29;4.80;99.90
21662;DHT22;10992;48.170;8.596;2023-03-26T18:26:15;4.70;99.90
21662;DHT22;10992;48.170;8.596;2023-03-26T18:28:47;4.60;99.90
21662;DHT22;10992;48.170;8.596;2023-03-26T18:31:24;4.40;99.90
21662;DHT22;10992;48.170;8.596;2023-03-26T18:33:56;4.30;99.90
21662;DHT22;10992;48.170;8.596;2023-03-26T18:36:30;4.30;99.90
21662;DHT22;10992;48.170;8.596;2023-03-26T18:38:57;4.20;99.90
21662;DHT22;10992;48.170;8.596;2023-03-26T18:41:34;4.10;99.90
21662;DHT22;10992;48.170;8.596;2023-03-26T18:44:16;4.10;99.90
21662;DHT22;10992;48.170;8.596;2023-03-26T18:46:44;4.00;99.90
21662;DHT22;10992;48.170;8.596;2023-03-26T18:49:15;4.00;99.90
21662;DHT22;10992;48.170;8.596;2023-03-26T18:51:43;3.90;99.90
21662;DHT22;10992;48.170;8.596;2023-03-26T18:54:23;3.90;99.90
21662;DHT22;10992;48.170;8.596;2023-03-26T18:56:50;3.90;99.90
21662;DHT22;10992;48.170;8.596;2023-03-26T18:59:25;3.90;99.90
21662;DHT22;10992;48.170;8.596;2023-03-26T19:01:55;3.90;99.90
21662;DHT22;10992;48.170;8.596;2023-03-26T19:04:27;3.80;99.90
21662;DHT22;10992;48.170;8.596;2023-03-26T19:06:57;3.80;99.90
21662;DHT22;10992;48.170;8.596;2023-03-26T19:09:25;3.80;99.90
21662;DHT22;10992;48.170;8.596;2023-03-26T19:12:04;3.60;99.90
21662;DHT22;10992;48.170;8.596;2023-03-26T19:14:32;3.60;99.90
21662;DHT22;10992;48.170;8.596;2023-03-26T19:17:04;3.50;99.90
21662;DHT22;10992;48.170;8.596;2023-03-26T19:19:35;3.50;99.90
21662;DHT22;10992;48.170;8.596;2023-03-26T19:22:04;3.40;99.90
21662;DHT22;10992;48.170;8.596;2023-03-26T19:24:32;3.40;99.90
21662;DHT22;10992;48.170;8.596;2023-03-26T19:27:00;3.30;99.90
21662;DHT22;10992;48.170;8.596;2023-03-26T19:29:31;3.30;99.90
21662;DHT22;10992;48.170;8.596;2023-03-26T19:32:05;3.20;99.90
21662;DHT22;10992;48.170;8.596;2023-03-26T19:34:43;3.20;99.90
21662;DHT22;10992;48.170;8.596;2023-03-26T19:37:21;3.10;99.90
21662;DHT22;10992;48.170;8.596;2023-03-26T19:39:53;3.10;99.90
21662;DHT22;10992;48.170;8.596;2023-03-26T19:44:52;3.00;99.90
21662;DHT22;10992;48.170;8.596;2023-03-26T19:47:25;3.00;99.90
21662;DHT22;10992;48.170;8.596;2023-03-26T19:50:27;3.00;99.90
21662;DHT22;10992;48.170;8.596;2023-03-26T19:55:54;3.00;99.90
21662;DHT22;10992;48.170;8.596;2023-03-26T19:58:23;3.00;99.90
21662;DHT22;10992;48.170;8.596;2023-03-26T20:00:52;3.10;99.90
21662;DHT22;10992;48.170;8.596;2023-03-26T20:03:43;3.10;99.90
21662;DHT22;10992;48.170;8.596;2023-03-26T20:06:17;3.00;99.90
21662;DHT22;10992;48.170;8.596;2023-03-26T20:08:44;3.00;99.90
21662;DHT22;10992;48.170;8.596;2023-03-26T20:13:45;3.00;99.90
21662;DHT22;10992;48.170;8.596;2023-03-26T20:16:24;3.10;99.90
21662;DHT22;10992;48.170;8.596;2023-03-26T20:18:52;3.10;99.90
21662;DHT22;10992;48.170;8.596;2023-03-26T20:21:19;3.10;99.90
21662;DHT22;10992;48.170;8.596;2023-03-26T20:23:46;3.10;99.90
21662;DHT22;10992;48.170;8.596;2023-03-26T20:26:15;3.00;99.90
21662;DHT22;10992;48.170;8.596;2023-03-26T20:28:44;3.00;99.90
21662;DHT22;10992;48.170;8.596;2023-03-26T20:31:21;3.00;99.90
21662;DHT22;10992;48.170;8.596;2023-03-26T20:33:52;3.00;99.90
21662;DHT22;10992;48.170;8.596;2023-03-26T20:36:20;3.20;99.90
21662;DHT22;10992;48.170;8.596;2023-03-26T20:39:02;3.30;99.90
21662;DHT22;10992;48.170;8.596;2023-03-26T20:41:32;3.40;99.90
21662;DHT22;10992;48.170;8.596;2023-03-26T20:44:00;3.40;99.90
21662;DHT22;10992;48.170;8.596;2023-03-26T20:46:29;3.30;99.90
21662;DHT22;10992;48.170;8.596;2023-03-26T20:48:59;3.40;99.90
21662;DHT22;10992;48.170;8.596;2023-03-26T20:51:26;3.30;99.90
21662;DHT22;10992;48.170;8.596;2023-03-26T20:53:56;3.40;99.90
21662;DHT22;10992;48.170;8.596;2023-03-26T20:56:23;3.40;99.90
21662;DHT22;10992;48.170;8.596;2023-03-26T20:58:51;3.50;99.90
21662;DHT22;10992;48.170;8.596;2023-03-26T21:01:26;3.60;99.90
21662;DHT22;10992;48.170;8.596;2023-03-26T21:03:55;3.70;99.90
21662;DHT22;10992;48.170;8.596;2023-03-26T21:06:22;3.80;99.90
21662;DHT22;10992;48.170;8.596;2023-03-26T21:08:50;3.80;99.90
21662;DHT22;10992;48.170;8.596;2023-03-26T21:11:37;3.90;99.90
21662;DHT22;10992;48.170;8.596;2023-03-26T21:14:18;3.90;99.90
21662;DHT22;10992;48.170;8.596;2023-03-26T21:16:46;4.00;99.90
21662;DHT22;10992;48.170;8.596;2023-03-26T21:19:14;4.10;99.90
21662;DHT22;10992;48.170;8.596;2023-03-26T21:24:41;4.10;99.90
21662;DHT22;10992;48.170;8.596;2023-03-26T21:29:53;4.10;99.90
21662;DHT22;10992;48.170;8.596;2023-03-26T21:32:21;4.10;99.90
21662;DHT22;10992;48.170;8.596;2023-03-26T21:34:52;4.10;99.90
21662;DHT22;10992;48.170;8.596;2023-03-26T21:37:23;4.00;99.90
21662;DHT22;10992;48.170;8.596;2023-03-26T21:39:51;4.00;99.90
21662;DHT22;10992;48.170;8.596;2023-03-26T21:42:18;4.00;99.90
21662;DHT22;10992;48.170;8.596;2023-03-26T21:44:46;4.00;99.90
21662;DHT22;10992;48.170;8.596;2023-03-26T21:47:14;3.90;99.90
21662;DHT22;10992;48.170;8.596;2023-03-26T21:49:41;3.90;99.90
21662;DHT22;10992;48.170;8.596;2023-03-26T21:52:12;3.80;99.90
21662;DHT22;10992;48.170;8.596;2023-03-26T21:54:41;3.70;99.90
21662;DHT22;10992;48.170;8.596;2023-03-26T22:07:55;3.80;99.90
21662;DHT22;10992;48.170;8.596;2023-03-26T22:10:23;3.80;99.90
21662;DHT22;10992;48.170;8.596;2023-03-26T22:12:51;3.90;99.90
21662;DHT22;10992;48.170;8.596;2023-03-26T22:15:18;3.90;99.90
21662;DHT22;10992;48.170;8.596;2023-03-26T22:17:46;3.90;99.90
21662;DHT22;10992;48.170;8.596;2023-03-26T22:20:21;3.90;99.90
21662;DHT22;10992;48.170;8.596;2023-03-26T22:22:50;3.90;99.90
21662;DHT22;10992;48.170;8.596;2023-03-26T22:25:20;3.90;99.90
21662;DHT22;10992;48.170;8.596;2023-03-26T22:27:49;3.90;99.90
21662;DHT22;10992;48.170;8.596;2023-03-26T22:30:17;4.00;99.90
21662;DHT22;10992;48.170;8.596;2023-03-26T22:32:45;3.90;99.90
21662;DHT22;10992;48.170;8.596;2023-03-26T22:35:12;4.00;99.90
21662;DHT22;10992;48.170;8.596;2023-03-26T22:37:40;4.00;99.90